createdAt,value
2022-10-25T00:02:21.367Z,99.90
2022-10-25T00:06:26.145Z,99.90
2022-10-25T00:10:29.756Z,99.90
2022-10-25T00:14:33.118Z,99.90
2022-10-25T00:18:36.404Z,99.90
2022-10-25T00:22:44.255Z,99.90
2022-10-25T00:26:47.717Z,99.90
2022-10-25T00:31:01.041Z,99.90
2022-10-25T00:35:04.735Z,99.90
2022-10-25T00:39:09.438Z,99.90
2022-10-25T00:43:12.792Z,99.90
2022-10-25T00:47:27.693Z,99.90
2022-10-25T00:51:35.916Z,99.90
2022-10-25T00:55:45.619Z,99.90
2022-10-25T00:59:49.548Z,99.90
2022-10-25T01:03:55.636Z,99.90
2022-10-25T01:07:59.020Z,99.90
2022-10-25T01:12:04.134Z,99.90
2022-10-25T01:16:19.241Z,99.90
2022-10-25T01:20:39.811Z,99.90
2022-10-25T01:25:16.953Z,99.90
2022-10-25T01:29:38.260Z,99.90
2022-10-25T01:33:49.695Z,99.90
2022-10-25T01:38:14.452Z,99.90
2022-10-25T01:42:25.375Z,99.90
2022-10-25T01:46:37.665Z,99.90
2022-10-25T01:50:44.958Z,99.90
2022-10-25T01:54:48.261Z,99.90
2022-10-25T01:59:12.636Z,99.90
2022-10-25T02:03:20.446Z,99.90
2022-10-25T02:07:30.249Z,99.90
2022-10-25T02:11:35.123Z,99.90
2022-10-25T02:15:41.645Z,99.90
2022-10-25T02:19:49.386Z,99.90
2022-10-25T02:23:55.933Z,99.90
2022-10-25T02:28:02.229Z,99.90
2022-10-25T02:32:06.650Z,99.90
2022-10-25T02:36:15.111Z,99.90
2022-10-25T02:40:20.640Z,99.90
2022-10-25T02:44:23.969Z,99.90
2022-10-25T02:48:27.321Z,99.90
2022-10-25T02:52:31.395Z,99.90
2022-10-25T02:56:36.127Z,99.90
2022-10-25T03:00:39.460Z,99.90
2022-10-25T03:04:42.797Z,99.90
2022-10-25T03:09:15.005Z,99.90
2022-10-25T03:13:19.819Z,99.90
2022-10-25T03:17:23.114Z,99.90
2022-10-25T03:21:26.847Z,99.90
2022-10-25T03:25:30.275Z,99.90
2022-10-25T03:29:34.970Z,99.90
2022-10-25T03:33:38.255Z,99.90
2022-10-25T03:37:41.587Z,99.90
2022-10-25T03:41:44.835Z,99.90
2022-10-25T03:45:49.548Z,99.90
2022-10-25T03:49:52.844Z,99.90
2022-10-25T03:53:56.173Z,99.90
2022-10-25T03:57:59.588Z,99.90
2022-10-25T04:02:04.534Z,99.90
2022-10-25T04:06:08.298Z,99.90
2022-10-25T04:10:11.686Z,99.90
2022-10-25T04:14:14.993Z,99.90
2022-10-25T04:18:21.124Z,99.90
2022-10-25T04:22:24.480Z,99.90
2022-10-25T04:26:27.836Z,99.90
2022-10-25T04:30:35.100Z,99.90
2022-10-25T04:34:42.718Z,99.90
2022-10-25T04:38:52.925Z,99.90
2022-10-25T04:42:56.264Z,99.90
2022-10-25T04:46:59.570Z,99.90
2022-10-25T04:51:04.838Z,99.90
2022-10-25T04:55:08.644Z,99.90
2022-10-25T04:59:12.060Z,99.90
2022-10-25T05:03:15.415Z,99.90
2022-10-25T05:07:20.772Z,99.90
2022-10-25T05:11:25.721Z,99.90
2022-10-25T05:15:29.174Z,99.90
2022-10-25T05:19:40.791Z,99.90
2022-10-25T05:23:45.935Z,99.90
2022-10-25T05:27:49.200Z,99.90
2022-10-25T05:31:52.485Z,99.90
2022-10-25T05:35:55.870Z,99.90
2022-10-25T05:40:00.771Z,99.90
2022-10-25T05:44:04.126Z,99.90
2022-10-25T05:48:07.639Z,99.90
2022-10-25T05:52:12.458Z,99.90
2022-10-25T05:56:18.270Z,99.90
2022-10-25T06:00:21.698Z,99.90
2022-10-25T06:04:25.065Z,99.90
2022-10-25T06:08:28.420Z,99.90
2022-10-25T06:12:33.170Z,99.90
2022-10-25T06:16:39.124Z,99.90
2022-10-25T06:20:42.510Z,99.90
2022-10-25T06:24:45.868Z,99.90
2022-10-25T06:28:53.849Z,99.90
2022-10-25T06:32:58.266Z,99.90
2022-10-25T06:37:03.714Z,99.90
2022-10-25T06:41:09.096Z,99.90
2022-10-25T06:45:13.957Z,99.90
2022-10-25T06:49:17.270Z,99.90
2022-10-25T06:53:24.331Z,99.90
2022-10-25T06:57:29.929Z,99.90
2022-10-25T07:01:51.178Z,99.90
2022-10-25T07:05:54.607Z,99.90
2022-10-25T07:09:57.976Z,99.90
2022-10-25T07:14:03.273Z,99.90
2022-10-25T07:18:08.005Z,99.90
2022-10-25T07:22:11.293Z,99.90
2022-10-25T07:26:17.510Z,99.90
2022-10-25T07:30:20.843Z,99.90
2022-10-25T07:34:25.519Z,99.90
2022-10-25T07:38:29.426Z,99.90
2022-10-25T07:42:33.934Z,99.90
2022-10-25T07:46:37.493Z,99.90
2022-10-25T07:50:42.507Z,99.90
2022-10-25T07:54:46.084Z,99.90
2022-10-25T07:58:50.409Z,99.90
2022-10-25T08:02:54.580Z,99.90
2022-10-25T08:07:01.598Z,99.90
2022-10-25T08:11:08.221Z,99.90
2022-10-25T08:15:12.280Z,99.90
2022-10-25T08:19:16.185Z,99.90
2022-10-25T08:23:21.391Z,99.90
2022-10-25T08:27:24.743Z,99.90
2022-10-25T08:31:28.113Z,99.90
2022-10-25T08:35:43.650Z,99.90
2022-10-25T08:39:52.151Z,99.90
2022-10-25T08:44:16.272Z,99.90
2022-10-25T08:48:24.718Z,99.90
2022-10-25T08:52:33.936Z,99.90
2022-10-25T08:56:51.232Z,99.90
2022-10-25T09:01:04.932Z,99.90
2022-10-25T09:05:20.309Z,99.90
2022-10-25T09:22:48.223Z,99.90
2022-10-25T09:27:00.934Z,99.90
2022-10-25T09:31:06.427Z,99.90
2022-10-25T09:35:16.840Z,99.90
2022-10-25T09:39:27.710Z,97.60
2022-10-25T09:43:36.608Z,96.40
2022-10-25T09:47:43.618Z,94.70
2022-10-25T09:51:57.647Z,94.40
2022-10-25T09:56:05.987Z,94.70
2022-10-25T10:00:14.713Z,93.30
2022-10-25T10:04:26.842Z,95.00
2022-10-25T10:08:33.111Z,95.60
2022-10-25T10:12:44.698Z,96.30
2022-10-25T10:16:51.246Z,94.10
2022-10-25T10:21:14.922Z,95.30
2022-10-25T10:25:20.521Z,95.30
2022-10-25T10:29:27.213Z,94.40
2022-10-25T10:33:34.415Z,96.20
2022-10-25T10:37:38.053Z,94.20
2022-10-25T10:42:00.982Z,93.70
2022-10-25T10:46:09.312Z,91.70
2022-10-25T10:50:24.452Z,91.50
2022-10-25T10:54:30.116Z,89.10
2022-10-25T10:58:35.645Z,86.20
2022-10-25T11:02:43.175Z,87.60
2022-10-25T11:06:46.735Z,84.30
2022-10-25T11:10:49.894Z,87.20
2022-10-25T11:14:54.072Z,83.60
2022-10-25T11:19:15.772Z,80.70
2022-10-25T11:23:28.062Z,74.10
2022-10-25T11:27:42.213Z,74.60
2022-10-25T11:31:57.707Z,70.70
2022-10-25T11:36:19.354Z,70.10
2022-10-25T11:40:33.952Z,70.60
2022-10-25T11:44:56.512Z,69.30
2022-10-25T11:49:16.302Z,71.20
2022-10-25T11:53:37.381Z,69.80
2022-10-25T11:57:52.633Z,68.50
2022-10-25T12:02:12.900Z,67.40
2022-10-25T12:06:25.554Z,68.10
2022-10-25T12:10:37.305Z,69.60
2022-10-25T12:14:45.245Z,69.40
2022-10-25T12:18:51.270Z,69.30
2022-10-25T12:22:58.762Z,67.90
2022-10-25T12:27:05.494Z,65.20
2022-10-25T12:31:24.791Z,67.80
2022-10-25T12:35:32.639Z,68.30
2022-10-25T12:39:41.049Z,71.00
2022-10-25T12:43:59.493Z,67.70
2022-10-25T12:48:17.915Z,66.30
2022-10-25T12:52:33.246Z,64.70
2022-10-25T12:56:50.436Z,64.70
2022-10-25T13:01:17.841Z,64.50
2022-10-25T13:06:01.581Z,64.50
2022-10-25T13:10:08.035Z,71.50
2022-10-25T13:14:23.538Z,80.60
2022-10-25T13:18:39.397Z,87.00
2022-10-25T13:22:43.858Z,90.20
2022-10-25T13:27:18.926Z,91.90
2022-10-25T13:31:48.938Z,91.70
2022-10-25T13:36:04.992Z,92.10
2022-10-25T13:40:20.467Z,93.10
2022-10-25T13:44:27.720Z,93.00
2022-10-25T13:48:42.607Z,94.20
2022-10-25T13:52:58.947Z,94.50
2022-10-25T13:57:05.290Z,94.90
2022-10-25T14:01:58.541Z,94.60
2022-10-25T14:06:27.337Z,93.80
2022-10-25T14:10:36.420Z,92.60
2022-10-25T14:14:58.313Z,95.40
2022-10-25T14:19:07.923Z,96.10
2022-10-25T14:23:20.613Z,95.00
2022-10-25T14:27:35.234Z,95.30
2022-10-25T14:31:38.663Z,95.20
2022-10-25T14:35:48.950Z,95.70
2022-10-25T14:39:55.767Z,95.10
2022-10-25T14:44:01.148Z,98.90
2022-10-25T14:48:11.049Z,99.90
2022-10-25T14:52:14.358Z,99.90
2022-10-25T14:56:22.627Z,99.90
2022-10-25T15:00:27.615Z,99.90
2022-10-25T15:04:33.602Z,99.90
2022-10-25T15:08:40.991Z,99.90
2022-10-25T15:12:52.774Z,99.90
2022-10-25T15:17:16.422Z,99.90
2022-10-25T15:21:20.243Z,99.90
2022-10-25T15:25:31.193Z,99.90
2022-10-25T15:33:59.727Z,99.90
2022-10-25T15:38:03.029Z,99.90
2022-10-25T15:42:07.117Z,99.90
2022-10-25T15:46:22.403Z,99.90
2022-10-25T15:50:27.775Z,99.90
2022-10-25T15:54:31.126Z,99.90
2022-10-25T15:58:36.502Z,99.90
2022-10-25T16:02:39.960Z,99.90
2022-10-25T16:06:47.817Z,99.90
2022-10-25T16:10:51.179Z,99.90
2022-10-25T16:14:59.598Z,99.90
2022-10-25T16:19:03.727Z,99.90
2022-10-25T16:23:08.468Z,99.90
2022-10-25T16:27:18.084Z,99.90
2022-10-25T16:31:21.674Z,99.90
2022-10-25T16:35:26.491Z,99.90
2022-10-25T16:39:31.287Z,99.90
2022-10-25T16:43:35.043Z,99.90
2022-10-25T16:47:58.623Z,99.90
2022-10-25T16:52:02.612Z,99.90
2022-10-25T16:56:11.472Z,99.90
2022-10-25T17:00:18.711Z,99.90
2022-10-25T17:04:24.516Z,99.90
2022-10-25T17:08:28.908Z,99.90
2022-10-25T17:12:33.477Z,99.90
2022-10-25T17:16:37.168Z,99.90
2022-10-25T17:20:42.365Z,99.90
2022-10-25T17:24:48.742Z,99.90
2022-10-25T17:28:54.813Z,99.90
2022-10-25T17:33:00.367Z,99.90
2022-10-25T17:37:04.901Z,99.90
2022-10-25T17:41:19.655Z,99.90
2022-10-25T17:45:24.773Z,99.90
2022-10-25T17:49:29.355Z,99.90
2022-10-25T17:53:33.757Z,99.90
2022-10-25T17:57:47.281Z,99.90
2022-10-25T18:01:52.713Z,99.90
2022-10-25T18:06:01.372Z,99.90
2022-10-25T18:10:06.919Z,99.90
2022-10-25T18:14:11.966Z,99.90
2022-10-25T18:18:17.391Z,99.90
2022-10-25T18:22:21.931Z,99.90
2022-10-25T18:26:28.024Z,99.90
2022-10-25T18:30:41.601Z,99.90
2022-10-25T18:34:48.113Z,99.90
2022-10-25T18:38:55.108Z,99.90
2022-10-25T18:42:59.717Z,99.90
2022-10-25T18:47:05.318Z,99.90
2022-10-25T18:51:38.659Z,99.90
2022-10-25T18:55:50.268Z,99.90
2022-10-25T19:00:02.180Z,99.90
2022-10-25T19:04:11.475Z,99.90
2022-10-25T19:08:18.859Z,99.90
2022-10-25T19:12:26.092Z,99.90
2022-10-25T19:16:44.061Z,99.90
2022-10-25T19:20:49.630Z,99.90
2022-10-25T19:29:05.924Z,99.90
2022-10-25T19:33:10.954Z,99.90
2022-10-25T19:37:16.333Z,99.90
2022-10-25T19:41:28.470Z,99.90
2022-10-25T19:45:34.689Z,99.90
2022-10-25T19:49:40.378Z,99.90
2022-10-25T19:53:48.999Z,99.90
2022-10-25T19:57:59.002Z,99.90
2022-10-25T20:02:07.051Z,99.90
2022-10-25T20:06:13.597Z,99.90
2022-10-25T20:10:17.557Z,99.90
2022-10-25T20:14:24.324Z,99.90
2022-10-25T20:18:32.256Z,99.90
2022-10-25T20:22:56.271Z,99.90
2022-10-25T20:27:02.744Z,99.90
2022-10-25T20:31:09.719Z,99.90
2022-10-25T20:35:16.025Z,99.90
2022-10-25T20:39:20.200Z,99.90
2022-10-25T20:43:24.640Z,99.90
2022-10-25T20:47:29.540Z,99.90
2022-10-25T20:51:34.098Z,99.90
2022-10-25T20:55:37.569Z,99.90
2022-10-25T20:59:41.131Z,99.90
2022-10-25T21:03:45.899Z,99.90
2022-10-25T21:07:49.452Z,99.90
2022-10-25T21:11:56.219Z,99.90
2022-10-25T21:15:59.594Z,99.90
2022-10-25T21:20:04.435Z,99.90
2022-10-25T21:24:08.221Z,99.90
2022-10-25T21:28:11.502Z,99.90
2022-10-25T21:32:14.805Z,99.90
2022-10-25T21:36:21.155Z,99.90
2022-10-25T21:40:26.574Z,99.90
2022-10-25T21:44:29.819Z,99.90
2022-10-25T21:48:33.336Z,99.90
2022-10-25T21:52:38.231Z,99.90
2022-10-25T21:56:41.646Z,99.90
2022-10-25T22:00:45.043Z,99.90
2022-10-25T22:04:48.382Z,99.90
2022-10-25T22:08:54.971Z,99.90
2022-10-25T22:12:59.325Z,99.90
2022-10-25T22:17:02.548Z,99.90
2022-10-25T22:21:07.825Z,99.90
2022-10-25T22:25:12.757Z,99.90
2022-10-25T22:29:16.163Z,99.90
2022-10-25T22:33:59.727Z,99.90
2022-10-25T22:38:03.017Z,99.90
2022-10-25T22:42:12.439Z,99.90
2022-10-25T22:46:17.430Z,99.90
2022-10-25T22:50:21.852Z,99.90
2022-10-25T22:54:25.146Z,99.90
2022-10-25T22:58:32.525Z,99.90
2022-10-25T23:02:35.750Z,99.90
2022-10-25T23:06:45.847Z,99.90
2022-10-25T23:10:49.531Z,99.90
2022-10-25T23:14:54.255Z,99.90
2022-10-25T23:18:58.080Z,99.90
2022-10-25T23:23:01.295Z,99.90
2022-10-25T23:27:05.717Z,99.90
2022-10-25T23:31:12.296Z,99.90
2022-10-25T23:35:15.869Z,99.90
2022-10-25T23:39:19.084Z,99.90
2022-10-25T23:43:22.354Z,99.90
2022-10-25T23:47:27.061Z,99.90
2022-10-25T23:51:30.316Z,99.90
2022-10-25T23:55:33.697Z,99.90
2022-10-25T23:59:36.937Z,99.90
